Stations météo

réclame
Mon MeteoGroup
Edinburgh, Grande-Bretagne (3160): Température de l'air & dewpoint: 16.10.2020 04:00:00 - 22.10.2020 04:00:00 (BST)Edinburgh, Grande-Bretagne (3160): Vitesse du vent: 16.10.2020 04:00:00 - 22.10.2020 04:00:00 (BST)Edinburgh, Grande-Bretagne (3160): Direction du vent: 16.10.2020 04:00:00 - 22.10.2020 04:00:00 (BST)Edinburgh, Grande-Bretagne (3160): visibility: 16.10.2020 04:00:00 - 22.10.2020 04:00:00 (BST)
Date & Time tt [°C] td [°C] ff [km/h] ff [knt] dd vv [km]
22.10.2020 04:00:00 9,0 8,0 8 4 W 10
22.10.2020 03:00:00 9,0 8,0 2 1 NW 9
22.10.2020 02:00:00 9,0 8,0 4 2 - 10
22.10.2020 01:00:00 8,0 7,0 4 2 WNW 10
22.10.2020 00:00:00 8,0 7,0 5 3 WNW 10
21.10.2020 23:00:00 10,0 9,0 8 4 SSW 10
21.10.2020 22:00:00 11,0 11,0 2 1 - 10
21.10.2020 21:00:00 11,0 11,0 0 0 N 10
21.10.2020 20:00:00 12,0 11,0 8 4 S 7
21.10.2020 19:00:00 13,0 10,0 4 2 - 10
21.10.2020 18:00:00 14,0 10,0 9 5 SSW 10
21.10.2020 17:00:00 14,0 10,0 13 7 SW 10
21.10.2020 16:00:00 15,0 10,0 15 8 SSW 10
21.10.2020 15:00:00 16,0 10,0 11 6 S 10
21.10.2020 14:00:00 16,0 10,0 15 8 SW 10
21.10.2020 13:00:00 17,0 10,0 15 8 S 10
21.10.2020 12:00:00 15,0 9,0 5 3 - 10
21.10.2020 11:00:00 14,0 9,0 13 7 S 10
21.10.2020 10:00:00 14,0 9,0 9 5 S 10
21.10.2020 09:00:00 13,0 9,0 13 7 S 10
21.10.2020 08:00:00 13,0 9,0 13 7 S 10
21.10.2020 07:00:00 12,0 9,0 11 6 S 10
21.10.2020 06:00:00 12,0 9,0 9 5 S 10
21.10.2020 05:00:00 13,0 9,0 15 8 S 10
21.10.2020 04:00:00 12,0 9,0 11 6 S 10
21.10.2020 03:00:00 12,0 10,0 9 5 SE 10
21.10.2020 02:00:00 12,0 9,0 5 3 - 10
21.10.2020 01:00:00 13,0 9,0 8 4 S 10
21.10.2020 00:00:00 13,0 10,0 15 8 S 10
20.10.2020 23:00:00 14,0 10,0 18 10 S 10
20.10.2020 22:00:00 14,0 9,0 21 11 S 10
20.10.2020 21:00:00 13,0 10,0 9 5 SE 10
20.10.2020 20:00:00 14,0 10,0 11 6 S 10
20.10.2020 19:00:00 13,0 10,0 9 5 SSE 10
20.10.2020 18:00:00 13,0 11,0 13 7 S 10
20.10.2020 17:00:00 12,0 11,0 4 2 - 9
20.10.2020 16:00:00 12,0 11,0 15 8 ENE 10
20.10.2020 15:00:00 12,0 11,0 15 8 NE 10
20.10.2020 14:00:00 12,0 11,0 13 7 ENE 10
20.10.2020 13:00:00 12,0 11,0 11 6 NE 10
20.10.2020 12:00:00 11,0 10,0 9 5 NNE 10
20.10.2020 11:00:00 11,0 10,0 9 5 NE 10
20.10.2020 10:00:00 10,0 9,0 9 5 E 9
20.10.2020 09:00:00 9,0 8,0 9 5 ENE 10
20.10.2020 08:00:00 9,0 8,0 9 5 E 10
20.10.2020 07:00:00 9,0 9,0 9 5 ENE 9
20.10.2020 06:00:00 9,0 9,0 11 6 E 8
20.10.2020 05:00:00 9,0 9,0 11 6 ENE 10
20.10.2020 04:00:00 10,0 9,0 8 4 E 10
20.10.2020 03:00:00 10,0 10,0 9 5 NE 10
20.10.2020 02:00:00 11,0 9,0 8 4 ESE 10
20.10.2020 01:00:00 11,0 9,0 4 2 - 10
20.10.2020 00:00:00 11,0 9,0 5 3 - 10
19.10.2020 23:00:00 11,0 9,0 21 11 SSW 10
19.10.2020 22:00:00 11,0 9,0 22 12 SSW 10
19.10.2020 21:00:00 11,0 9,0 26 14 SSW 10
19.10.2020 20:00:00 11,0 9,0 5 3 - 10
19.10.2020 19:00:00 11,0 9,0 4 2 - 10
19.10.2020 18:00:00 11,0 9,0 5 3 - 10
19.10.2020 17:00:00 11,0 9,0 13 7 SSW 10
19.10.2020 16:00:00 12,0 9,0 21 11 SSW 10
19.10.2020 15:00:00 12,0 9,0 22 12 SSW 10
19.10.2020 14:00:00 12,0 10,0 22 12 SSW 10
19.10.2020 13:00:00 12,0 10,0 24 13 SSW 10
19.10.2020 12:00:00 13,0 10,0 26 14 SSW 10
19.10.2020 11:00:00 12,0 10,0 28 15 SSW 10
19.10.2020 10:00:00 12,0 10,0 26 14 SW 10
19.10.2020 09:00:00 12,0 10,0 31 17 SW 10
19.10.2020 08:00:00 12,0 10,0 26 14 SSW 10
19.10.2020 07:00:00 12,0 10,0 16 9 SSW 10
19.10.2020 06:00:00 12,0 10,0 15 8 SW 10
19.10.2020 05:00:00 11,0 9,0 18 10 SSW 10
19.10.2020 04:00:00 11,0 10,0 16 9 SSW 10
19.10.2020 03:00:00 10,0 9,0 9 5 SW 10
19.10.2020 02:00:00 10,0 8,0 2 1 - 10
19.10.2020 01:00:00 10,0 8,0 5 3 - 10
19.10.2020 00:00:00 10,0 8,0 15 8 SW 10
18.10.2020 23:00:00 10,0 7,0 16 9 SW 10
18.10.2020 22:00:00 10,0 8,0 18 10 SW 10
18.10.2020 21:00:00 9,0 8,0 5 3 W 10
18.10.2020 20:00:00 9,0 7,0 4 2 W 10
18.10.2020 19:00:00 9,0 7,0 2 1 - 10
18.10.2020 18:00:00 10,0 7,0 4 2 WSW 10
18.10.2020 17:00:00 10,0 8,0 8 4 SW 10
18.10.2020 16:00:00 10,0 8,0 4 2 - 10
18.10.2020 15:00:00 9,0 7,0 5 3 - 10
18.10.2020 14:00:00 9,0 7,0 4 2 - 10
18.10.2020 13:00:00 9,0 7,0 4 2 - 10
18.10.2020 12:00:00 8,0 7,0 2 1 - 10
18.10.2020 11:00:00 8,0 7,0 9 5 ESE 10
18.10.2020 10:00:00 8,0 7,0 8 4 E 10
18.10.2020 09:00:00 7,0 7,0 9 5 E 10
18.10.2020 08:00:00 7,0 7,0 2 1 - 10
18.10.2020 07:00:00 7,0 7,0 4 2 NNE 10
18.10.2020 06:00:00 7,0 7,0 2 1 W 10
18.10.2020 05:00:00 7,0 7,0 5 3 SW 10
18.10.2020 04:00:00 7,0 7,0 5 3 W 10
18.10.2020 03:00:00 8,0 7,0 4 2 - 10
18.10.2020 02:00:00 8,0 7,0 2 1 W 10
18.10.2020 01:00:00 8,0 7,0 2 1 WSW 10
18.10.2020 00:00:00 8,0 7,0 5 3 W 10
17.10.2020 23:00:00 8,0 7,0 2 1 - 10
17.10.2020 22:00:00 8,0 7,0 15 8 ENE 10
17.10.2020 21:00:00 8,0 8,0 16 9 ENE 6
17.10.2020 20:00:00 9,0 8,0 11 6 ENE 6
17.10.2020 19:00:00 10,0 7,0 5 3 NE 10
17.10.2020 18:00:00 10,0 7,0 8 4 NE 10
17.10.2020 17:00:00 10,0 7,0 11 6 ENE 10
17.10.2020 16:00:00 11,0 8,0 16 9 ENE 10
17.10.2020 15:00:00 10,0 8,0 13 7 ENE 10
17.10.2020 14:00:00 11,0 7,0 16 9 ENE 10
17.10.2020 13:00:00 11,0 7,0 15 8 ENE 10
17.10.2020 12:00:00 10,0 7,0 15 8 ENE 10
17.10.2020 11:00:00 10,0 7,0 9 5 NE 10
17.10.2020 10:00:00 9,0 6,0 4 2 - 10
17.10.2020 09:00:00 8,0 6,0 2 1 NW 10
17.10.2020 08:00:00 8,0 6,0 4 2 - 10
17.10.2020 07:00:00 8,0 6,0 5 3 N 10
17.10.2020 06:00:00 8,0 6,0 4 2 N 10
17.10.2020 05:00:00 8,0 6,0 8 4 NNE 10
17.10.2020 04:00:00 - - - - - -
17.10.2020 03:00:00 9,0 5,0 15 8 NE 10
17.10.2020 02:00:00 9,0 6,0 11 6 NNE 10
17.10.2020 01:00:00 9,0 6,0 11 6 NNE 10
17.10.2020 00:00:00 9,0 6,0 11 6 NNE 10
16.10.2020 23:00:00 9,0 6,0 15 8 NE 10
16.10.2020 22:00:00 10,0 6,0 13 7 NE 10
16.10.2020 21:00:00 10,0 7,0 11 6 NE 10
16.10.2020 20:00:00 10,0 8,0 8 4 NNE 10
16.10.2020 19:00:00 10,0 7,0 11 6 NE 10
16.10.2020 18:00:00 10,0 8,0 11 6 NE 10
16.10.2020 17:00:00 11,0 8,0 15 8 NE 10
16.10.2020 16:00:00 11,0 7,0 5 3 - 10
16.10.2020 15:00:00 11,0 7,0 8 4 NE 10
16.10.2020 14:00:00 10,0 7,0 5 3 - 10
16.10.2020 13:00:00 10,0 7,0 8 4 N 10
16.10.2020 12:00:00 10,0 7,0 4 2 - 10
16.10.2020 11:00:00 - - - - - -
16.10.2020 10:00:00 8,0 7,0 4 2 WSW 10
16.10.2020 09:00:00 7,0 6,0 2 1 WNW 10
16.10.2020 08:00:00 7,0 6,0 4 2 WSW 10
16.10.2020 07:00:00 7,0 6,0 5 3 WSW 10
16.10.2020 06:00:00 7,0 6,0 2 1 W 10
16.10.2020 05:00:00 7,0 6,0 5 3 SW 10
16.10.2020 04:00:00 7,0 6,0 8 4 WSW 10

tt = Température de l'air
td = dewpoint
ff = Vitesse du vent
dd = Direction du vent
vv = visibility

stations d'obs. à proximité